sensor_id;sensor_type;location;lat;lon;timestamp;temperature;humidity
14182;DHT22;7171;50.936;6.764;2023-07-24T00:00:44;20.00;99.90
14182;DHT22;7171;50.936;6.764;2023-07-24T00:03:11;19.90;99.90
14182;DHT22;7171;50.936;6.764;2023-07-24T00:05:38;19.90;99.90
14182;DHT22;7171;50.936;6.764;2023-07-24T00:08:06;19.90;99.90
14182;DHT22;7171;50.936;6.764;2023-07-24T00:10:32;21.40;99.90
14182;DHT22;7171;50.936;6.764;2023-07-24T00:12:59;19.90;99.90
14182;DHT22;7171;50.936;6.764;2023-07-24T00:15:26;19.90;99.90
14182;DHT22;7171;50.936;6.764;2023-07-24T00:17:53;19.80;99.90
14182;DHT22;7171;50.936;6.764;2023-07-24T00:20:20;19.80;99.90
14182;DHT22;7171;50.936;6.764;2023-07-24T00:22:46;19.80;99.90
14182;DHT22;7171;50.936;6.764;2023-07-24T00:25:15;19.70;99.90
14182;DHT22;7171;50.936;6.764;2023-07-24T00:27:41;19.70;99.90
14182;DHT22;7171;50.936;6.764;2023-07-24T00:30:09;19.70;99.90
14182;DHT22;7171;50.936;6.764;2023-07-24T00:32:36;19.70;99.90
14182;DHT22;7171;50.936;6.764;2023-07-24T00:35:04;19.70;99.90
14182;DHT22;7171;50.936;6.764;2023-07-24T00:37:31;19.70;99.90
14182;DHT22;7171;50.936;6.764;2023-07-24T00:39:57;19.70;99.90
14182;DHT22;7171;50.936;6.764;2023-07-24T00:42:25;19.70;99.90
14182;DHT22;7171;50.936;6.764;2023-07-24T00:47:19;19.70;99.90
14182;DHT22;7171;50.936;6.764;2023-07-24T00:49:47;19.70;99.90
14182;DHT22;7171;50.936;6.764;2023-07-24T00:52:15;19.70;99.90
14182;DHT22;7171;50.936;6.764;2023-07-24T00:54:42;19.70;99.90
14182;DHT22;7171;50.936;6.764;2023-07-24T00:57:10;19.70;99.90
14182;DHT22;7171;50.936;6.764;2023-07-24T00:59:38;19.70;99.90
14182;DHT22;7171;50.936;6.764;2023-07-24T01:02:05;19.70;99.90
14182;DHT22;7171;50.936;6.764;2023-07-24T01:04:32;19.70;99.90
14182;DHT22;7171;50.936;6.764;2023-07-24T01:06:59;20.50;99.90
14182;DHT22;7171;50.936;6.764;2023-07-24T01:09:26;19.70;99.90
14182;DHT22;7171;50.936;6.764;2023-07-24T01:11:57;19.70;99.90
14182;DHT22;7171;50.936;6.764;2023-07-24T01:14:29;19.70;99.90
14182;DHT22;7171;50.936;6.764;2023-07-24T01:17:00;19.70;99.90
14182;DHT22;7171;50.936;6.764;2023-07-24T01:19:35;19.70;99.90
14182;DHT22;7171;50.936;6.764;2023-07-24T01:22:10;19.70;99.90
14182;DHT22;7171;50.936;6.764;2023-07-24T01:24:51;19.60;99.90
14182;DHT22;7171;50.936;6.764;2023-07-24T01:27:25;20.50;99.90
14182;DHT22;7171;50.936;6.764;2023-07-24T01:29:52;19.60;99.90
14182;DHT22;7171;50.936;6.764;2023-07-24T01:32:19;19.60;99.90
14182;DHT22;7171;50.936;6.764;2023-07-24T01:34:46;19.60;99.90
14182;DHT22;7171;50.936;6.764;2023-07-24T01:37:14;19.50;99.90
14182;DHT22;7171;50.936;6.764;2023-07-24T01:39:41;19.50;99.90
14182;DHT22;7171;50.936;6.764;2023-07-24T01:42:08;19.50;99.90
14182;DHT22;7171;50.936;6.764;2023-07-24T01:44:36;19.50;99.90
14182;DHT22;7171;50.936;6.764;2023-07-24T01:47:03;19.50;99.90
14182;DHT22;7171;50.936;6.764;2023-07-24T01:49:30;19.50;99.90
14182;DHT22;7171;50.936;6.764;2023-07-24T01:51:57;19.50;99.90
14182;DHT22;7171;50.936;6.764;2023-07-24T01:54:24;19.50;99.90
14182;DHT22;7171;50.936;6.764;2023-07-24T01:56:52;19.50;99.90
14182;DHT22;7171;50.936;6.764;2023-07-24T01:59:19;20.60;99.90
14182;DHT22;7171;50.936;6.764;2023-07-24T02:01:47;19.50;99.90
14182;DHT22;7171;50.936;6.764;2023-07-24T02:04:13;19.50;99.90
14182;DHT22;7171;50.936;6.764;2023-07-24T02:06:40;19.50;99.90
14182;DHT22;7171;50.936;6.764;2023-07-24T02:09:07;19.50;99.90
14182;DHT22;7171;50.936;6.764;2023-07-24T02:11:34;19.50;99.90
14182;DHT22;7171;50.936;6.764;2023-07-24T02:14:00;19.50;99.90
14182;DHT22;7171;50.936;6.764;2023-07-24T02:16:27;19.50;99.90
14182;DHT22;7171;50.936;6.764;2023-07-24T02:18:55;19.50;99.90
14182;DHT22;7171;50.936;6.764;2023-07-24T02:23:49;19.50;99.90
14182;DHT22;7171;50.936;6.764;2023-07-24T02:28:42;19.50;99.90
14182;DHT22;7171;50.936;6.764;2023-07-24T02:31:09;19.50;99.90
14182;DHT22;7171;50.936;6.764;2023-07-24T02:33:36;19.50;99.90
14182;DHT22;7171;50.936;6.764;2023-07-24T02:36:04;19.40;99.90
14182;DHT22;7171;50.936;6.764;2023-07-24T02:38:31;19.40;99.90
14182;DHT22;7171;50.936;6.764;2023-07-24T02:40:57;19.40;99.90
14182;DHT22;7171;50.936;6.764;2023-07-24T02:43:24;19.40;99.90
14182;DHT22;7171;50.936;6.764;2023-07-24T02:45:51;19.40;99.90
14182;DHT22;7171;50.936;6.764;2023-07-24T02:48:17;19.40;99.90
14182;DHT22;7171;50.936;6.764;2023-07-24T02:50:44;19.40;99.90
14182;DHT22;7171;50.936;6.764;2023-07-24T02:53:14;19.40;99.90
14182;DHT22;7171;50.936;6.764;2023-07-24T02:55:42;19.40;99.90
14182;DHT22;7171;50.936;6.764;2023-07-24T02:58:10;19.40;99.90
14182;DHT22;7171;50.936;6.764;2023-07-24T03:00:37;19.40;99.90
14182;DHT22;7171;50.936;6.764;2023-07-24T03:03:04;19.40;99.90
14182;DHT22;7171;50.936;6.764;2023-07-24T03:05:31;19.40;99.90
14182;DHT22;7171;50.936;6.764;2023-07-24T03:07:57;19.40;99.90
14182;DHT22;7171;50.936;6.764;2023-07-24T03:10:25;19.40;99.90
14182;DHT22;7171;50.936;6.764;2023-07-24T03:12:52;20.60;99.90
14182;DHT22;7171;50.936;6.764;2023-07-24T03:15:19;19.40;99.90
14182;DHT22;7171;50.936;6.764;2023-07-24T03:17:46;19.40;99.90
14182;DHT22;7171;50.936;6.764;2023-07-24T03:20:15;19.40;99.90
14182;DHT22;7171;50.936;6.764;2023-07-24T03:22:42;19.40;99.90
14182;DHT22;7171;50.936;6.764;2023-07-24T03:25:09;20.90;99.90
14182;DHT22;7171;50.936;6.764;2023-07-24T03:27:37;19.40;99.90
14182;DHT22;7171;50.936;6.764;2023-07-24T03:30:05;19.40;99.90
14182;DHT22;7171;50.936;6.764;2023-07-24T03:32:32;19.40;99.90
14182;DHT22;7171;50.936;6.764;2023-07-24T03:34:58;19.40;99.90
14182;DHT22;7171;50.936;6.764;2023-07-24T03:37:25;19.40;99.90
14182;DHT22;7171;50.936;6.764;2023-07-24T03:39:52;19.40;99.90
14182;DHT22;7171;50.936;6.764;2023-07-24T03:42:25;19.40;99.90
14182;DHT22;7171;50.936;6.764;2023-07-24T03:44:54;19.40;99.90
14182;DHT22;7171;50.936;6.764;2023-07-24T03:47:21;19.50;99.90
14182;DHT22;7171;50.936;6.764;2023-07-24T03:49:47;19.40;99.90
14182;DHT22;7171;50.936;6.764;2023-07-24T03:52:14;19.40;99.90
14182;DHT22;7171;50.936;6.764;2023-07-24T03:54:41;19.40;99.90
14182;DHT22;7171;50.936;6.764;2023-07-24T03:57:08;19.40;99.90
14182;DHT22;7171;50.936;6.764;2023-07-24T03:59:34;19.40;99.90
14182;DHT22;7171;50.936;6.764;2023-07-24T04:02:03;19.40;99.90
14182;DHT22;7171;50.936;6.764;2023-07-24T04:04:29;19.40;99.90
14182;DHT22;7171;50.936;6.764;2023-07-24T04:06:56;19.30;99.90
14182;DHT22;7171;50.936;6.764;2023-07-24T04:09:23;19.40;99.90
14182;DHT22;7171;50.936;6.764;2023-07-24T04:11:50;19.40;99.90
14182;DHT22;7171;50.936;6.764;2023-07-24T04:14:16;19.40;99.90
14182;DHT22;7171;50.936;6.764;2023-07-24T04:16:43;19.40;99.90
14182;DHT22;7171;50.936;6.764;2023-07-24T04:19:11;19.40;99.90
14182;DHT22;7171;50.936;6.764;2023-07-24T04:21:38;19.40;99.90
14182;DHT22;7171;50.936;6.764;2023-07-24T04:24:05;19.40;99.90
14182;DHT22;7171;50.936;6.764;2023-07-24T04:26:32;19.40;99.90
14182;DHT22;7171;50.936;6.764;2023-07-24T04:28:59;19.40;99.90
14182;DHT22;7171;50.936;6.764;2023-07-24T04:31:25;19.40;99.90
14182;DHT22;7171;50.936;6.764;2023-07-24T04:33:52;19.40;99.90
14182;DHT22;7171;50.936;6.764;2023-07-24T04:36:20;19.40;99.90
14182;DHT22;7171;50.936;6.764;2023-07-24T04:38:47;19.50;99.90
14182;DHT22;7171;50.936;6.764;2023-07-24T04:41:13;19.40;99.90
14182;DHT22;7171;50.936;6.764;2023-07-24T04:43:40;19.40;99.90
14182;DHT22;7171;50.936;6.764;2023-07-24T04:46:07;19.50;99.90
14182;DHT22;7171;50.936;6.764;2023-07-24T04:48:33;19.50;99.90
14182;DHT22;7171;50.936;6.764;2023-07-24T04:51:00;19.50;99.90
14182;DHT22;7171;50.936;6.764;2023-07-24T04:53:28;19.50;99.90
14182;DHT22;7171;50.936;6.764;2023-07-24T04:55:55;19.50;99.90
14182;DHT22;7171;50.936;6.764;2023-07-24T04:58:22;19.50;99.90
14182;DHT22;7171;50.936;6.764;2023-07-24T05:00:48;19.50;99.90
14182;DHT22;7171;50.936;6.764;2023-07-24T05:03:15;19.50;99.90
14182;DHT22;7171;50.936;6.764;2023-07-24T05:05:42;19.50;99.90
14182;DHT22;7171;50.936;6.764;2023-07-24T05:08:09;20.70;99.90
14182;DHT22;7171;50.936;6.764;2023-07-24T05:10:37;21.00;99.90
14182;DHT22;7171;50.936;6.764;2023-07-24T05:13:04;19.50;99.90
14182;DHT22;7171;50.936;6.764;2023-07-24T05:15:31;19.50;99.90
14182;DHT22;7171;50.936;6.764;2023-07-24T05:17:57;21.80;99.90
14182;DHT22;7171;50.936;6.764;2023-07-24T05:20:24;19.60;99.90
14182;DHT22;7171;50.936;6.764;2023-07-24T05:22:51;19.60;99.90
14182;DHT22;7171;50.936;6.764;2023-07-24T05:25:17;19.60;99.90
14182;DHT22;7171;50.936;6.764;2023-07-24T05:27:45;19.60;99.90
14182;DHT22;7171;50.936;6.764;2023-07-24T05:30:12;19.60;99.90
14182;DHT22;7171;50.936;6.764;2023-07-24T05:32:39;19.70;99.90
14182;DHT22;7171;50.936;6.764;2023-07-24T05:35:06;19.70;99.90
14182;DHT22;7171;50.936;6.764;2023-07-24T05:37:33;19.70;99.90
14182;DHT22;7171;50.936;6.764;2023-07-24T05:39:59;19.70;99.90
14182;DHT22;7171;50.936;6.764;2023-07-24T05:42:26;19.80;99.90
14182;DHT22;7171;50.936;6.764;2023-07-24T05:44:54;19.80;99.90
14182;DHT22;7171;50.936;6.764;2023-07-24T05:47:21;19.80;99.90
14182;DHT22;7171;50.936;6.764;2023-07-24T05:49:47;19.90;99.90
14182;DHT22;7171;50.936;6.764;2023-07-24T05:52:14;19.90;99.90
14182;DHT22;7171;50.936;6.764;2023-07-24T05:54:41;19.90;99.90
14182;DHT22;7171;50.936;6.764;2023-07-24T05:57:07;20.00;99.90
14182;DHT22;7171;50.936;6.764;2023-07-24T05:59:34;20.00;99.90
14182;DHT22;7171;50.936;6.764;2023-07-24T06:02:02;23.40;99.90
14182;DHT22;7171;50.936;6.764;2023-07-24T06:04:29;20.10;99.90
14182;DHT22;7171;50.936;6.764;2023-07-24T06:06:56;20.20;99.90
14182;DHT22;7171;50.936;6.764;2023-07-24T06:09:22;20.20;99.90
14182;DHT22;7171;50.936;6.764;2023-07-24T06:11:49;20.30;99.90
14182;DHT22;7171;50.936;6.764;2023-07-24T06:14:16;20.30;99.90
14182;DHT22;7171;50.936;6.764;2023-07-24T06:16:42;20.30;99.90
14182;DHT22;7171;50.936;6.764;2023-07-24T06:19:10;20.40;99.90
14182;DHT22;7171;50.936;6.764;2023-07-24T06:21:37;20.40;99.90
14182;DHT22;7171;50.936;6.764;2023-07-24T06:24:04;20.60;99.90
14182;DHT22;7171;50.936;6.764;2023-07-24T06:26:31;20.50;99.90
14182;DHT22;7171;50.936;6.764;2023-07-24T06:28:57;20.50;99.90
14182;DHT22;7171;50.936;6.764;2023-07-24T06:31:24;20.50;99.90
14182;DHT22;7171;50.936;6.764;2023-07-24T06:33:51;20.50;99.90
14182;DHT22;7171;50.936;6.764;2023-07-24T06:36:19;20.50;99.90
14182;DHT22;7171;50.936;6.764;2023-07-24T06:38:45;20.50;99.90
14182;DHT22;7171;50.936;6.764;2023-07-24T06:41:13;20.60;99.90
14182;DHT22;7171;50.936;6.764;2023-07-24T06:43:40;22.10;99.90
14182;DHT22;7171;50.936;6.764;2023-07-24T06:46:07;20.50;99.90
14182;DHT22;7171;50.936;6.764;2023-07-24T06:48:34;20.60;99.90
14182;DHT22;7171;50.936;6.764;2023-07-24T06:51:01;20.60;99.90
14182;DHT22;7171;50.936;6.764;2023-07-24T06:53:29;20.60;99.90
14182;DHT22;7171;50.936;6.764;2023-07-24T06:55:56;20.60;99.90
14182;DHT22;7171;50.936;6.764;2023-07-24T06:58:22;20.60;99.90
14182;DHT22;7171;50.936;6.764;2023-07-24T07:00:49;20.60;99.90
14182;DHT22;7171;50.936;6.764;2023-07-24T07:03:16;23.30;99.90
14182;DHT22;7171;50.936;6.764;2023-07-24T07:05:43;20.60;99.90
14182;DHT22;7171;50.936;6.764;2023-07-24T07:08:09;20.60;99.90
14182;DHT22;7171;50.936;6.764;2023-07-24T07:10:37;20.60;99.90
14182;DHT22;7171;50.936;6.764;2023-07-24T07:13:04;20.70;99.90
14182;DHT22;7171;50.936;6.764;2023-07-24T07:15:31;20.70;99.90
14182;DHT22;7171;50.936;6.764;2023-07-24T07:17:57;20.70;99.90
14182;DHT22;7171;50.936;6.764;2023-07-24T07:20:24;20.70;99.90
14182;DHT22;7171;50.936;6.764;2023-07-24T07:22:51;20.70;99.90
14182;DHT22;7171;50.936;6.764;2023-07-24T07:25:18;20.70;99.90
14182;DHT22;7171;50.936;6.764;2023-07-24T07:27:46;20.70;99.90
14182;DHT22;7171;50.936;6.764;2023-07-24T07:30:12;20.80;99.90
14182;DHT22;7171;50.936;6.764;2023-07-24T07:32:39;20.80;99.90
14182;DHT22;7171;50.936;6.764;2023-07-24T07:35:07;20.80;99.90
14182;DHT22;7171;50.936;6.764;2023-07-24T07:37:33;20.80;99.90
14182;DHT22;7171;50.936;6.764;2023-07-24T07:40:00;20.80;99.90
14182;DHT22;7171;50.936;6.764;2023-07-24T07:42:27;20.80;99.90
14182;DHT22;7171;50.936;6.764;2023-07-24T07:44:55;20.90;99.90
14182;DHT22;7171;50.936;6.764;2023-07-24T07:47:22;20.90;99.90
14182;DHT22;7171;50.936;6.764;2023-07-24T07:49:50;21.00;99.90
14182;DHT22;7171;50.936;6.764;2023-07-24T07:52:16;21.10;99.90
14182;DHT22;7171;50.936;6.764;2023-07-24T07:54:46;21.10;99.90
14182;DHT22;7171;50.936;6.764;2023-07-24T07:57:13;21.20;99.90
14182;DHT22;7171;50.936;6.764;2023-07-24T07:59:40;21.20;99.90
14182;DHT22;7171;50.936;6.764;2023-07-24T08:02:08;21.20;99.90
14182;DHT22;7171;50.936;6.764;2023-07-24T08:04:34;21.30;99.90
14182;DHT22;7171;50.936;6.764;2023-07-24T08:07:01;21.30;99.90
14182;DHT22;7171;50.936;6.764;2023-07-24T08:09:28;21.40;99.90
14182;DHT22;7171;50.936;6.764;2023-07-24T08:11:55;21.40;99.90
14182;DHT22;7171;50.936;6.764;2023-07-24T08:14:21;21.50;99.90
14182;DHT22;7171;50.936;6.764;2023-07-24T08:16:48;21.50;99.90
14182;DHT22;7171;50.936;6.764;2023-07-24T08:19:16;21.60;99.90
14182;DHT22;7171;50.936;6.764;2023-07-24T08:21:43;21.60;99.90
14182;DHT22;7171;50.936;6.764;2023-07-24T08:24:10;21.60;99.90
14182;DHT22;7171;50.936;6.764;2023-07-24T08:26:36;21.60;99.90
14182;DHT22;7171;50.936;6.764;2023-07-24T08:29:04;21.60;99.90
14182;DHT22;7171;50.936;6.764;2023-07-24T08:31:31;21.60;99.90
14182;DHT22;7171;50.936;6.764;2023-07-24T08:33:58;21.80;99.90
14182;DHT22;7171;50.936;6.764;2023-07-24T08:36:26;21.60;99.90
14182;DHT22;7171;50.936;6.764;2023-07-24T08:38:52;21.70;99.90
14182;DHT22;7171;50.936;6.764;2023-07-24T08:41:19;21.70;99.90
14182;DHT22;7171;50.936;6.764;2023-07-24T08:43:46;21.70;99.90
14182;DHT22;7171;50.936;6.764;2023-07-24T08:46:15;21.80;99.90
14182;DHT22;7171;50.936;6.764;2023-07-24T08:48:42;21.80;99.90
14182;DHT22;7171;50.936;6.764;2023-07-24T08:51:11;21.80;99.90
14182;DHT22;7171;50.936;6.764;2023-07-24T08:53:43;21.90;99.90
14182;DHT22;7171;50.936;6.764;2023-07-24T08:56:11;21.90;99.90
14182;DHT22;7171;50.936;6.764;2023-07-24T08:58:39;21.90;99.90
14182;DHT22;7171;50.936;6.764;2023-07-24T09:01:06;21.90;99.90
14182;DHT22;7171;50.936;6.764;2023-07-24T09:03:34;21.90;99.90
14182;DHT22;7171;50.936;6.764;2023-07-24T09:06:01;21.90;99.90
14182;DHT22;7171;50.936;6.764;2023-07-24T09:08:29;22.10;99.90
14182;DHT22;7171;50.936;6.764;2023-07-24T09:10:58;22.00;99.90
14182;DHT22;7171;50.936;6.764;2023-07-24T09:13:25;22.00;99.90
14182;DHT22;7171;50.936;6.764;2023-07-24T09:15:51;22.00;99.90
14182;DHT22;7171;50.936;6.764;2023-07-24T09:18:19;22.10;99.90
14182;DHT22;7171;50.936;6.764;2023-07-24T09:20:45;22.10;99.90
14182;DHT22;7171;50.936;6.764;2023-07-24T09:23:13;22.10;99.90
14182;DHT22;7171;50.936;6.764;2023-07-24T09:25:42;22.10;99.90
14182;DHT22;7171;50.936;6.764;2023-07-24T09:28:11;22.10;99.90
14182;DHT22;7171;50.936;6.764;2023-07-24T09:30:39;22.10;99.90
14182;DHT22;7171;50.936;6.764;2023-07-24T09:33:06;22.10;99.90
14182;DHT22;7171;50.936;6.764;2023-07-24T09:35:33;22.10;99.90
14182;DHT22;7171;50.936;6.764;2023-07-24T09:38:05;22.20;99.90
14182;DHT22;7171;50.936;6.764;2023-07-24T09:40:42;22.20;99.90
14182;DHT22;7171;50.936;6.764;2023-07-24T09:43:21;22.20;99.90
14182;DHT22;7171;50.936;6.764;2023-07-24T09:45:49;22.20;99.90
14182;DHT22;7171;50.936;6.764;2023-07-24T09:48:17;22.20;99.90
14182;DHT22;7171;50.936;6.764;2023-07-24T09:50:45;22.30;99.90
14182;DHT22;7171;50.936;6.764;2023-07-24T09:53:16;22.30;99.90
14182;DHT22;7171;50.936;6.764;2023-07-24T09:55:48;22.40;99.90
14182;DHT22;7171;50.936;6.764;2023-07-24T09:58:16;22.50;99.90
14182;DHT22;7171;50.936;6.764;2023-07-24T10:00:46;22.50;99.90
14182;DHT22;7171;50.936;6.764;2023-07-24T10:03:14;22.60;99.90
14182;DHT22;7171;50.936;6.764;2023-07-24T10:05:41;22.60;99.90
14182;DHT22;7171;50.936;6.764;2023-07-24T10:08:09;22.70;99.90
14182;DHT22;7171;50.936;6.764;2023-07-24T10:10:37;22.70;99.90
14182;DHT22;7171;50.936;6.764;2023-07-24T10:13:05;22.80;99.90
14182;DHT22;7171;50.936;6.764;2023-07-24T10:15:32;22.80;99.90
14182;DHT22;7171;50.936;6.764;2023-07-24T10:18:04;22.80;99.90
14182;DHT22;7171;50.936;6.764;2023-07-24T10:20:35;22.90;99.90
14182;DHT22;7171;50.936;6.764;2023-07-24T10:23:02;22.90;99.90
14182;DHT22;7171;50.936;6.764;2023-07-24T10:25:30;22.90;99.90
14182;DHT22;7171;50.936;6.764;2023-07-24T10:28:02;22.90;99.90
14182;DHT22;7171;50.936;6.764;2023-07-24T10:30:33;22.90;99.90
14182;DHT22;7171;50.936;6.764;2023-07-24T10:33:08;22.90;99.90
14182;DHT22;7171;50.936;6.764;2023-07-24T10:35:40;22.90;99.90
14182;DHT22;7171;50.936;6.764;2023-07-24T10:38:07;22.90;99.90
14182;DHT22;7171;50.936;6.764;2023-07-24T10:40:34;22.90;99.90
14182;DHT22;7171;50.936;6.764;2023-07-24T10:43:04;22.90;99.90
14182;DHT22;7171;50.936;6.764;2023-07-24T10:45:47;22.90;99.90
14182;DHT22;7171;50.936;6.764;2023-07-24T10:48:16;22.90;99.90
14182;DHT22;7171;50.936;6.764;2023-07-24T10:50:44;22.80;99.90
14182;DHT22;7171;50.936;6.764;2023-07-24T10:53:13;22.80;99.90
14182;DHT22;7171;50.936;6.764;2023-07-24T10:55:41;22.80;99.90
14182;DHT22;7171;50.936;6.764;2023-07-24T10:58:08;22.80;99.90
14182;DHT22;7171;50.936;6.764;2023-07-24T11:00:35;22.80;99.90
14182;DHT22;7171;50.936;6.764;2023-07-24T11:03:02;22.90;99.90
14182;DHT22;7171;50.936;6.764;2023-07-24T11:05:31;22.90;99.90
14182;DHT22;7171;50.936;6.764;2023-07-24T11:07:59;22.90;99.90
14182;DHT22;7171;50.936;6.764;2023-07-24T11:10:25;23.00;99.90
14182;DHT22;7171;50.936;6.764;2023-07-24T11:12:52;23.50;99.90
14182;DHT22;7171;50.936;6.764;2023-07-24T11:15:24;23.00;99.90
14182;DHT22;7171;50.936;6.764;2023-07-24T11:17:51;23.00;99.90
14182;DHT22;7171;50.936;6.764;2023-07-24T11:20:18;23.00;99.90
14182;DHT22;7171;50.936;6.764;2023-07-24T11:22:46;22.90;99.90
14182;DHT22;7171;50.936;6.764;2023-07-24T11:25:13;22.90;99.90
14182;DHT22;7171;50.936;6.764;2023-07-24T11:27:40;22.80;99.90
14182;DHT22;7171;50.936;6.764;2023-07-24T11:30:10;22.70;99.90
14182;DHT22;7171;50.936;6.764;2023-07-24T11:32:38;22.70;99.90
14182;DHT22;7171;50.936;6.764;2023-07-24T11:35:06;22.50;99.90
14182;DHT22;7171;50.936;6.764;2023-07-24T11:37:34;22.30;99.90
14182;DHT22;7171;50.936;6.764;2023-07-24T11:40:04;21.90;99.90
14182;DHT22;7171;50.936;6.764;2023-07-24T11:42:37;21.50;99.90
14182;DHT22;7171;50.936;6.764;2023-07-24T11:45:05;21.10;99.90
14182;DHT22;7171;50.936;6.764;2023-07-24T11:47:41;20.90;99.90
14182;DHT22;7171;50.936;6.764;2023-07-24T11:50:08;20.60;99.90
14182;DHT22;7171;50.936;6.764;2023-07-24T11:52:39;20.50;99.90
14182;DHT22;7171;50.936;6.764;2023-07-24T11:55:08;20.50;99.90
14182;DHT22;7171;50.936;6.764;2023-07-24T11:57:35;20.50;99.90
14182;DHT22;7171;50.936;6.764;2023-07-24T12:00:03;20.60;99.90
14182;DHT22;7171;50.936;6.764;2023-07-24T12:02:32;20.60;99.90
14182;DHT22;7171;50.936;6.764;2023-07-24T12:04:59;20.70;99.90
14182;DHT22;7171;50.936;6.764;2023-07-24T12:07:31;20.70;99.90
14182;DHT22;7171;50.936;6.764;2023-07-24T12:09:59;21.20;99.90
14182;DHT22;7171;50.936;6.764;2023-07-24T12:12:37;20.50;99.90
14182;DHT22;7171;50.936;6.764;2023-07-24T12:15:04;20.40;99.90
14182;DHT22;7171;50.936;6.764;2023-07-24T12:17:31;20.30;99.90
14182;DHT22;7171;50.936;6.764;2023-07-24T12:19:57;20.30;99.90
14182;DHT22;7171;50.936;6.764;2023-07-24T12:22:24;20.10;99.90
14182;DHT22;7171;50.936;6.764;2023-07-24T12:24:51;20.10;99.90
14182;DHT22;7171;50.936;6.764;2023-07-24T12:27:17;20.10;99.90
14182;DHT22;7171;50.936;6.764;2023-07-24T12:29:45;20.10;99.90
14182;DHT22;7171;50.936;6.764;2023-07-24T12:32:12;20.10;99.90
14182;DHT22;7171;50.936;6.764;2023-07-24T12:34:39;20.10;99.90
14182;DHT22;7171;50.936;6.764;2023-07-24T12:37:05;20.10;99.90
14182;DHT22;7171;50.936;6.764;2023-07-24T12:39:32;20.20;99.90
14182;DHT22;7171;50.936;6.764;2023-07-24T12:41:59;20.30;99.90
14182;DHT22;7171;50.936;6.764;2023-07-24T12:44:25;20.30;99.90
14182;DHT22;7171;50.936;6.764;2023-07-24T12:46:53;20.40;99.90
14182;DHT22;7171;50.936;6.764;2023-07-24T12:49:20;20.40;99.90
14182;DHT22;7171;50.936;6.764;2023-07-24T12:51:47;20.40;99.90
14182;DHT22;7171;50.936;6.764;2023-07-24T12:54:14;20.30;99.90
14182;DHT22;7171;50.936;6.764;2023-07-24T12:56:41;20.10;99.90
14182;DHT22;7171;50.936;6.764;2023-07-24T12:59:07;20.20;99.90
14182;DHT22;7171;50.936;6.764;2023-07-24T13:01:34;20.20;99.90
14182;DHT22;7171;50.936;6.764;2023-07-24T13:04:02;20.20;99.90
14182;DHT22;7171;50.936;6.764;2023-07-24T13:06:29;20.20;99.90
14182;DHT22;7171;50.936;6.764;2023-07-24T13:08:55;20.30;99.90
14182;DHT22;7171;50.936;6.764;2023-07-24T13:11:22;20.40;99.90
14182;DHT22;7171;50.936;6.764;2023-07-24T13:13:49;20.50;99.90
14182;DHT22;7171;50.936;6.764;2023-07-24T13:16:16;20.70;99.90
14182;DHT22;7171;50.936;6.764;2023-07-24T13:18:43;20.80;99.90
14182;DHT22;7171;50.936;6.764;2023-07-24T13:21:11;22.00;99.90
14182;DHT22;7171;50.936;6.764;2023-07-24T13:23:39;21.10;99.90
14182;DHT22;7171;50.936;6.764;2023-07-24T13:26:06;21.70;99.90
14182;DHT22;7171;50.936;6.764;2023-07-24T13:28:33;21.20;99.90
14182;DHT22;7171;50.936;6.764;2023-07-24T13:31:11;21.30;99.90
14182;DHT22;7171;50.936;6.764;2023-07-24T13:33:38;21.30;99.90
14182;DHT22;7171;50.936;6.764;2023-07-24T13:36:04;21.30;99.90
14182;DHT22;7171;50.936;6.764;2023-07-24T13:38:32;21.20;99.90
14182;DHT22;7171;50.936;6.764;2023-07-24T13:40:59;21.10;99.90
14182;DHT22;7171;50.936;6.764;2023-07-24T13:43:27;21.00;99.90
14182;DHT22;7171;50.936;6.764;2023-07-24T13:45:53;20.90;99.90
14182;DHT22;7171;50.936;6.764;2023-07-24T13:48:20;20.80;99.90
14182;DHT22;7171;50.936;6.764;2023-07-24T13:50:47;20.60;99.90
14182;DHT22;7171;50.936;6.764;2023-07-24T13:53:14;20.50;99.90
14182;DHT22;7171;50.936;6.764;2023-07-24T13:55:42;20.40;99.90
14182;DHT22;7171;50.936;6.764;2023-07-24T13:58:08;20.30;99.90
14182;DHT22;7171;50.936;6.764;2023-07-24T14:00:35;20.20;99.90
14182;DHT22;7171;50.936;6.764;2023-07-24T14:03:02;22.70;99.90
14182;DHT22;7171;50.936;6.764;2023-07-24T14:05:29;20.00;99.90
14182;DHT22;7171;50.936;6.764;2023-07-24T14:07:56;20.00;99.90
14182;DHT22;7171;50.936;6.764;2023-07-24T14:10:22;19.90;99.90
14182;DHT22;7171;50.936;6.764;2023-07-24T14:12:50;19.80;99.90
14182;DHT22;7171;50.936;6.764;2023-07-24T14:15:17;19.80;99.90
14182;DHT22;7171;50.936;6.764;2023-07-24T14:17:44;19.80;99.90
14182;DHT22;7171;50.936;6.764;2023-07-24T14:20:11;19.80;99.90
14182;DHT22;7171;50.936;6.764;2023-07-24T14:22:38;19.80;99.90
14182;DHT22;7171;50.936;6.764;2023-07-24T14:25:06;19.80;99.90
14182;DHT22;7171;50.936;6.764;2023-07-24T14:27:33;19.80;99.90
14182;DHT22;7171;50.936;6.764;2023-07-24T14:30:01;19.90;99.90
14182;DHT22;7171;50.936;6.764;2023-07-24T14:32:28;19.90;99.90
14182;DHT22;7171;50.936;6.764;2023-07-24T14:34:54;20.00;99.90
14182;DHT22;7171;50.936;6.764;2023-07-24T14:37:21;20.10;99.90
14182;DHT22;7171;50.936;6.764;2023-07-24T14:39:49;20.10;99.90
14182;DHT22;7171;50.936;6.764;2023-07-24T14:42:16;20.20;99.90
14182;DHT22;7171;50.936;6.764;2023-07-24T14:44:43;20.20;99.90
14182;DHT22;7171;50.936;6.764;2023-07-24T14:47:11;20.10;99.90
14182;DHT22;7171;50.936;6.764;2023-07-24T14:49:38;20.20;99.90
14182;DHT22;7171;50.936;6.764;2023-07-24T14:52:05;20.20;99.90
14182;DHT22;7171;50.936;6.764;2023-07-24T14:54:32;20.20;99.90
14182;DHT22;7171;50.936;6.764;2023-07-24T14:56:59;20.20;99.90
14182;DHT22;7171;50.936;6.764;2023-07-24T14:59:27;20.30;99.90
14182;DHT22;7171;50.936;6.764;2023-07-24T15:01:54;20.40;99.90
14182;DHT22;7171;50.936;6.764;2023-07-24T15:04:22;21.00;99.90
14182;DHT22;7171;50.936;6.764;2023-07-24T15:06:49;21.20;99.90
14182;DHT22;7171;50.936;6.764;2023-07-24T15:09:15;20.90;99.90
14182;DHT22;7171;50.936;6.764;2023-07-24T15:11:42;21.10;99.90
14182;DHT22;7171;50.936;6.764;2023-07-24T15:14:09;21.20;99.90
14182;DHT22;7171;50.936;6.764;2023-07-24T15:16:35;21.30;99.90
14182;DHT22;7171;50.936;6.764;2023-07-24T15:19:02;24.40;99.90
14182;DHT22;7171;50.936;6.764;2023-07-24T15:21:30;21.30;99.90
14182;DHT22;7171;50.936;6.764;2023-07-24T15:23:57;21.30;99.90
14182;DHT22;7171;50.936;6.764;2023-07-24T15:26:24;21.30;99.90
14182;DHT22;7171;50.936;6.764;2023-07-24T15:28:51;21.30;99.90
14182;DHT22;7171;50.936;6.764;2023-07-24T15:31:17;23.20;99.90
14182;DHT22;7171;50.936;6.764;2023-07-24T15:33:44;21.20;99.90
14182;DHT22;7171;50.936;6.764;2023-07-24T15:36:11;21.20;99.90
14182;DHT22;7171;50.936;6.764;2023-07-24T15:38:39;21.20;99.90
14182;DHT22;7171;50.936;6.764;2023-07-24T15:41:06;21.20;99.90
14182;DHT22;7171;50.936;6.764;2023-07-24T15:43:32;21.10;99.90
14182;DHT22;7171;50.936;6.764;2023-07-24T15:45:59;21.10;99.90
14182;DHT22;7171;50.936;6.764;2023-07-24T15:48:26;22.20;99.90
14182;DHT22;7171;50.936;6.764;2023-07-24T15:50:53;21.00;99.90
14182;DHT22;7171;50.936;6.764;2023-07-24T15:53:19;20.90;99.90